Tropical Cyclones
[Index]
Main Index Home Page Stock Weather Photos Extreme Storms Discussion Storm News and Storm Chasing Reports Tropical Cyclones / Hurricanes / Typhoons Weather Data and Links Wild Fires / Bushfires Weather Observation Techniques Weather Picture Catalogue Tornado Pictures and Reports Stock Video Footage and DVDs for sale
Season 2009-2010 Tropical Cyclone GELANE Track Map
Season 2009-2010 Summaries: [BoM-AU] [JTWC-AU] [JTWC-SIO] [JTWC-SPAC] [JTWC-SH]
<<- Previous TC | JTWC 2009-2010 Season | Next TC ->>

click for intensity scale information  Lat/long Grid: Show Hide

 Date Labels: Show Hide

Joint Typhoon Warning Centre Cyclone Data

Name: GELANE

15 Feb 2010 00:00 UTC to 22 Feb 2010 12:00 UTC

    date/time    lat    long     hPa   cat  kts
2010-02-15 00   10.6    58.5    1004         25          
2010-02-15 06   10.3    58.6    1004         25          
2010-02-15 12   10.3    58.9    1000         30          
2010-02-15 18   10.6    59.3    1000         30          
2010-02-16 00   11.1    59.8     996         35          
2010-02-16 06   11.9    60.3     993    1    40          
2010-02-16 12   12.5    60.4     989    1    45          
2010-02-16 18   12.9    60.6     982    2    55          
2010-02-16 18   12.9    60.6     982    2    55          
2010-02-17 00   13.3    60.7     974    2    65          
2010-02-17 00   13.3    60.7     974    2    65          
2010-02-17 06   13.5    61.2     959    3    85          
2010-02-17 06   13.5    61.2     959    3    85          
2010-02-17 06   13.5    61.2     959    3    85          
2010-02-17 12   14.1    61.6     963    3    80          
2010-02-17 12   14.1    61.6     963    3    80          
2010-02-17 12   14.1    61.6     963    3    80          
2010-02-17 18   14.5    61.8     963    3    80          
2010-02-17 18   14.5    61.8     963    3    80          
2010-02-17 18   14.5    61.8     963    3    80          
2010-02-18 00   14.7    61.9     963    3    80          
2010-02-18 00   14.7    61.9     963    3    80          
2010-02-18 00   14.7    61.9     963    3    80          
2010-02-18 06   14.9    62.1     956    3    90          
2010-02-18 06   14.9    62.1     956    3    90          
2010-02-18 06   14.9    62.1     956    3    90          
2010-02-18 12   15.3    62.3     952    3    95          
2010-02-18 12   15.3    62.3     952    3    95          
2010-02-18 12   15.3    62.3     952    3    95          
2010-02-18 18   15.8    62.3     948    4   100          
2010-02-18 18   15.8    62.3     948    4   100          
2010-02-18 18   15.8    62.3     948    4   100          
2010-02-19 00   16.3    62.2     948    4   100          
2010-02-19 00   16.3    62.2     948    4   100          
2010-02-19 00   16.3    62.2     948    4   100          
2010-02-19 06   16.7    62.2     937    4   115          
2010-02-19 06   16.7    62.2     937    4   115          
2010-02-19 06   16.7    62.2     937    4   115          
2010-02-19 12   17.3    62.1     929    5   125          
2010-02-19 12   17.3    62.1     929    5   125          
2010-02-19 12   17.3    62.1     929    5   125          
2010-02-19 18   18.0    62.0     933    4   120          
2010-02-19 18   18.0    62.0     933    4   120          
2010-02-19 18   18.0    62.0     933    4   120          
2010-02-20 00   18.4    61.7     941    4   110          
2010-02-20 00   18.4    61.7     941    4   110          
2010-02-20 00   18.4    61.7     941    4   110          
2010-02-20 06   18.9    61.6     956    3    90          
2010-02-20 06   18.9    61.6     956    3    90          
2010-02-20 06   18.9    61.6     956    3    90          
2010-02-20 12   19.4    61.5     963    3    80          
2010-02-20 12   19.4    61.5     963    3    80          
2010-02-20 12   19.4    61.5     963    3    80          
2010-02-20 18   20.0    61.6     974    2    65          
2010-02-20 18   20.0    61.6     974    2    65          
2010-02-21 00   20.7    61.9     985    1    50          
2010-02-21 06   21.2    62.0     993    1    40          
2010-02-21 12   20.7    61.3     996         35          
2010-02-21 18   20.2    60.5    1000         30          
2010-02-22 00   20.0    60.2    1004         25          
2010-02-22 06   20.3    60.1    1007         20          
2010-02-22 12   21.1    60.1    1007         20          
Winds are 1-min average.

Tropical cyclone tracks developed by Michael Bath using data from the Joint Typhoon Warning Centre Best Tracks and Google Maps.


[Australian Severe Weather index] [Copyright Notice] [Email Contacts] [Search This Site] [Privacy Policy]
Document: tropical_cyclone_gelane.htm Updated: 28 June 2017